createdAt,value
2023-03-10T00:01:55.140Z,2.83
2023-03-10T00:04:23.588Z,2.40
2023-03-10T00:06:52.181Z,2.90
2023-03-10T00:09:20.746Z,3.00
2023-03-10T00:11:49.099Z,2.77
2023-03-10T00:14:17.749Z,2.53
2023-03-10T00:16:47.473Z,2.60
2023-03-10T00:19:15.791Z,2.33
2023-03-10T00:21:45.763Z,3.00
2023-03-10T00:24:14.143Z,2.90
2023-03-10T00:26:42.460Z,3.37
2023-03-10T00:29:12.668Z,3.33
2023-03-10T00:31:41.022Z,3.53
2023-03-10T00:34:11.823Z,3.77
2023-03-10T00:36:40.524Z,3.57
2023-03-10T00:39:12.021Z,3.50
2023-03-10T00:41:40.375Z,3.00
2023-03-10T00:44:09.745Z,2.67
2023-03-10T00:46:40.067Z,2.27
2023-03-10T00:49:10.216Z,2.40
2023-03-10T00:51:38.518Z,1.90
2023-03-10T00:54:06.974Z,1.47
2023-03-10T00:56:35.300Z,1.63
2023-03-10T00:59:03.695Z,2.30
2023-03-10T01:02:24.089Z,1.67
2023-03-10T01:04:53.773Z,2.60
2023-03-10T01:07:22.081Z,2.63
2023-03-10T01:09:50.583Z,2.83
2023-03-10T01:12:46.464Z,2.60
2023-03-10T01:15:15.129Z,2.73
2023-03-10T01:17:44.347Z,2.50
2023-03-10T01:20:16.877Z,3.03
2023-03-10T01:22:45.223Z,3.03
2023-03-10T01:25:16.884Z,2.50
2023-03-10T01:27:45.313Z,2.93
2023-03-10T01:30:14.816Z,2.63
2023-03-10T01:32:43.251Z,2.20
2023-03-10T01:35:13.915Z,3.03
2023-03-10T01:37:44.539Z,2.57
2023-03-10T01:40:16.498Z,2.30
2023-03-10T01:42:44.874Z,2.03
2023-03-10T01:45:46.289Z,2.70
2023-03-10T01:48:17.863Z,2.57
2023-03-10T01:50:48.623Z,2.13
2023-03-10T01:53:17.917Z,2.80
2023-03-10T01:55:49.919Z,2.70
2023-03-10T01:58:19.498Z,2.40
2023-03-10T02:00:47.855Z,2.50
2023-03-10T02:03:18.774Z,2.90
2023-03-10T02:05:51.263Z,2.50
2023-03-10T02:08:19.935Z,2.30
2023-03-10T02:10:48.791Z,1.47
2023-03-10T02:13:17.832Z,2.43
2023-03-10T02:15:47.494Z,2.37
2023-03-10T02:18:19.219Z,2.20
2023-03-10T02:20:53.916Z,2.90
2023-03-10T02:23:41.046Z,2.87
2023-03-10T02:26:16.304Z,3.27
2023-03-10T02:28:46.531Z,3.50
2023-03-10T02:31:15.285Z,3.40
2023-03-10T02:33:44.885Z,3.63
2023-03-10T02:36:15.323Z,2.90
2023-03-10T02:38:43.889Z,4.40
2023-03-10T02:41:18.513Z,3.50
2023-03-10T02:43:48.924Z,3.73
2023-03-10T02:46:24.125Z,4.60
2023-03-10T02:48:52.645Z,4.97
2023-03-10T02:51:29.960Z,4.63
2023-03-10T02:54:01.485Z,4.47
2023-03-10T02:56:31.155Z,4.50
2023-03-10T02:59:01.600Z,4.80
2023-03-10T03:01:30.854Z,4.13
2023-03-10T03:04:00.943Z,4.83
2023-03-10T03:06:30.040Z,3.93
2023-03-10T03:08:58.629Z,4.03
2023-03-10T03:11:29.124Z,4.60
2023-03-10T03:13:57.634Z,4.57
2023-03-10T03:16:28.120Z,3.90
2023-03-10T03:19:01.176Z,5.00
2023-03-10T03:21:30.833Z,4.33
2023-03-10T03:24:00.203Z,4.37
2023-03-10T03:26:28.633Z,4.07
2023-03-10T03:29:02.578Z,4.30
2023-03-10T03:31:36.064Z,3.67
2023-03-10T03:34:15.711Z,3.67
2023-03-10T03:36:45.548Z,3.93
2023-03-10T03:39:17.519Z,4.43
2023-03-10T03:41:53.345Z,3.97
2023-03-10T03:44:22.164Z,3.83
2023-03-10T03:47:00.596Z,4.23
2023-03-10T03:49:29.516Z,2.87
2023-03-10T03:51:58.233Z,3.30
2023-03-10T03:54:26.681Z,3.30
2023-03-10T03:57:23.608Z,3.47
2023-03-10T04:04:24.626Z,2.23
2023-03-10T04:06:54.143Z,3.20
2023-03-10T04:10:43.171Z,2.43
2023-03-10T04:22:15.499Z,2.80
2023-03-10T04:29:18.954Z,1.90
2023-03-10T04:32:38.470Z,1.63
2023-03-10T04:35:09.755Z,2.30
2023-03-10T04:37:39.817Z,1.50
2023-03-10T04:40:11.600Z,1.80
2023-03-10T04:42:40.960Z,2.23
2023-03-10T04:45:10.717Z,1.33
2023-03-10T04:48:57.239Z,1.63
2023-03-10T04:51:26.137Z,2.37
2023-03-10T04:54:00.377Z,2.83
2023-03-10T04:57:13.858Z,3.03
2023-03-10T04:59:43.372Z,2.10
2023-03-10T05:02:12.096Z,2.73
2023-03-10T05:04:41.316Z,1.87
2023-03-10T05:07:11.108Z,3.07
2023-03-10T05:09:46.842Z,2.03
2023-03-10T05:12:15.721Z,2.20
2023-03-10T05:14:44.129Z,2.20
2023-03-10T05:17:13.381Z,2.00
2023-03-10T05:19:41.991Z,2.10
2023-03-10T05:22:12.546Z,2.37
2023-03-10T05:24:41.850Z,1.80
2023-03-10T05:27:13.124Z,2.43
2023-03-10T05:29:44.482Z,2.37
2023-03-10T05:32:22.863Z,3.27
2023-03-10T05:34:55.974Z,1.80
2023-03-10T05:37:26.686Z,2.60
2023-03-10T05:39:56.350Z,2.63
2023-03-10T05:42:26.151Z,2.40
2023-03-10T05:44:54.601Z,2.80
2023-03-10T05:47:23.096Z,2.90
2023-03-10T05:49:51.527Z,2.90
2023-03-10T05:52:20.386Z,2.90
2023-03-10T05:54:48.845Z,3.00
2023-03-10T05:57:17.245Z,2.83
2023-03-10T05:59:47.190Z,3.43
2023-03-10T06:02:16.457Z,3.43
2023-03-10T06:04:45.128Z,3.20
2023-03-10T06:07:14.566Z,3.57
2023-03-10T06:09:43.269Z,3.20
2023-03-10T06:12:13.707Z,3.40
2023-03-10T06:14:42.548Z,3.20
2023-03-10T06:17:12.375Z,3.80
2023-03-10T06:19:42.137Z,3.17
2023-03-10T06:22:11.367Z,2.60
2023-03-10T06:24:39.782Z,3.30
2023-03-10T06:27:08.201Z,3.23
2023-03-10T06:29:37.224Z,2.77
2023-03-10T06:32:06.490Z,2.73
2023-03-10T06:34:36.433Z,3.10
2023-03-10T06:37:05.536Z,3.53
2023-03-10T06:39:33.981Z,3.30
2023-03-10T06:42:02.604Z,3.27
2023-03-10T06:44:31.037Z,3.70
2023-03-10T06:46:59.687Z,3.33
2023-03-10T06:49:31.209Z,3.00
2023-03-10T06:52:00.984Z,2.50
2023-03-10T06:54:30.409Z,2.73
2023-03-10T06:56:59.526Z,3.47
2023-03-10T06:59:27.915Z,2.93
2023-03-10T07:01:56.225Z,3.77
2023-03-10T07:04:24.625Z,3.10
2023-03-10T07:06:53.278Z,2.90
2023-03-10T07:09:22.990Z,3.20
2023-03-10T07:11:51.362Z,3.40
2023-03-10T07:14:19.658Z,3.77
2023-03-10T07:16:47.998Z,2.70
2023-03-10T07:19:16.461Z,3.20
2023-03-10T07:21:45.289Z,3.50
2023-03-10T07:24:13.652Z,2.87
2023-03-10T07:26:43.587Z,3.23
2023-03-10T07:29:12.151Z,3.37
2023-03-10T07:31:40.742Z,3.80
2023-03-10T07:34:09.114Z,3.47
2023-03-10T07:36:37.638Z,3.10
2023-03-10T07:39:05.970Z,3.50
2023-03-10T07:41:34.393Z,2.73
2023-03-10T07:44:04.231Z,4.60
2023-03-10T07:46:32.711Z,3.23
2023-03-10T07:49:07.261Z,2.67
2023-03-10T07:51:35.730Z,3.67
2023-03-10T07:54:04.576Z,3.63
2023-03-10T07:56:33.539Z,3.40
2023-03-10T07:59:03.353Z,3.33
2023-03-10T08:01:31.792Z,5.20
2023-03-10T08:04:00.690Z,5.30
2023-03-10T08:06:30.916Z,4.77
2023-03-10T08:08:59.829Z,3.20
2023-03-10T08:11:28.354Z,3.90
2023-03-10T08:13:57.667Z,3.33
2023-03-10T08:16:27.630Z,3.70
2023-03-10T08:18:56.169Z,2.70
2023-03-10T08:21:25.352Z,3.23
2023-03-10T08:23:53.884Z,3.03
2023-03-10T08:26:23.426Z,3.40
2023-03-10T08:28:51.816Z,3.30
2023-03-10T08:31:22.039Z,3.30
2023-03-10T08:38:27.922Z,3.90
2023-03-10T08:40:56.291Z,4.23
2023-03-10T08:43:25.688Z,3.67
2023-03-10T08:45:54.041Z,3.83
2023-03-10T08:48:22.632Z,4.37
2023-03-10T09:15:44.594Z,4.63
2023-03-10T09:55:15.500Z,3.67
2023-03-10T09:57:44.208Z,3.80
2023-03-10T10:01:05.692Z,3.73
2023-03-10T10:12:43.717Z,3.93
2023-03-10T10:39:28.476Z,2.50
2023-03-10T10:42:13.637Z,2.67
2023-03-10T10:44:42.903Z,3.00
2023-03-10T10:47:56.760Z,3.60
2023-03-10T10:50:26.272Z,3.17
2023-03-10T10:53:21.719Z,2.80
2023-03-10T10:56:02.515Z,3.50
2023-03-10T10:58:33.734Z,2.80
2023-03-10T11:01:04.276Z,3.90
2023-03-10T11:03:34.649Z,3.00
2023-03-10T11:06:04.145Z,3.10
2023-03-10T11:08:37.734Z,3.33
2023-03-10T11:11:33.750Z,2.97
2023-03-10T11:14:10.323Z,2.80
2023-03-10T11:16:47.552Z,3.23
2023-03-10T11:19:23.458Z,2.93
2023-03-10T11:21:54.819Z,3.33
2023-03-10T11:24:28.185Z,3.87
2023-03-10T11:27:01.136Z,4.07
2023-03-10T11:29:39.764Z,3.10
2023-03-10T11:32:18.877Z,3.60
2023-03-10T11:34:52.113Z,3.40
2023-03-10T11:37:29.979Z,2.87
2023-03-10T11:40:08.730Z,3.07
2023-03-10T11:42:42.832Z,2.80
2023-03-10T11:45:24.507Z,3.50
2023-03-10T11:48:01.244Z,2.90
2023-03-10T11:50:41.154Z,3.40
2023-03-10T11:53:14.905Z,2.47
2023-03-10T11:55:45.571Z,3.40
2023-03-10T11:58:27.656Z,3.43
2023-03-10T12:00:59.807Z,2.87
2023-03-10T12:03:42.451Z,3.50
2023-03-10T12:06:15.280Z,3.60
2023-03-10T12:08:43.753Z,3.27
2023-03-10T12:11:16.359Z,2.67
2023-03-10T12:13:48.027Z,2.60
2023-03-10T12:16:19.807Z,2.23
2023-03-10T12:18:48.380Z,2.57
2023-03-10T12:21:19.278Z,2.80
2023-03-10T12:23:48.800Z,3.20
2023-03-10T12:26:17.485Z,2.83
2023-03-10T12:28:47.313Z,2.73
2023-03-10T12:31:48.463Z,3.07
2023-03-10T12:34:19.206Z,3.43
2023-03-10T12:36:48.163Z,2.50
2023-03-10T12:39:32.735Z,3.00
2023-03-10T12:42:01.776Z,3.30
2023-03-10T12:44:45.477Z,3.60
2023-03-10T12:47:19.710Z,3.30
2023-03-10T12:49:51.232Z,3.63
2023-03-10T12:52:25.929Z,2.60
2023-03-10T12:55:22.189Z,2.80
2023-03-10T12:58:00.097Z,2.93
2023-03-10T13:00:41.512Z,2.63
2023-03-10T13:03:19.675Z,2.80
2023-03-10T13:06:00.370Z,3.07
2023-03-10T13:08:35.686Z,2.30
2023-03-10T13:11:04.957Z,2.30
2023-03-10T13:13:36.556Z,2.40
2023-03-10T13:16:08.475Z,3.37
2023-03-10T13:18:36.847Z,2.70
2023-03-10T13:21:06.697Z,2.70
2023-03-10T13:23:36.935Z,2.70
2023-03-10T13:26:07.990Z,3.00
2023-03-10T13:28:38.160Z,2.67
2023-03-10T13:31:19.563Z,2.60
2023-03-10T13:33:53.676Z,2.70
2023-03-10T13:36:28.644Z,3.40
2023-03-10T13:38:58.672Z,2.47
2023-03-10T13:41:27.243Z,2.63
2023-03-10T13:43:56.220Z,2.63
2023-03-10T13:46:29.018Z,2.40
2023-03-10T13:49:03.846Z,3.27
2023-03-10T13:51:34.107Z,3.40
2023-03-10T13:54:14.682Z,2.67
2023-03-10T13:56:43.724Z,3.53
2023-03-10T13:59:15.795Z,2.40
2023-03-10T14:01:51.040Z,3.20
2023-03-10T14:04:20.978Z,2.80
2023-03-10T14:07:08.367Z,2.60
2023-03-10T14:09:36.942Z,3.40
2023-03-10T14:12:05.898Z,2.87
2023-03-10T14:14:45.511Z,2.90
2023-03-10T14:17:36.589Z,2.50
2023-03-10T14:20:12.203Z,2.33
2023-03-10T14:22:43.621Z,3.13
2023-03-10T14:25:15.431Z,2.83
2023-03-10T14:27:45.962Z,2.70
2023-03-10T14:30:25.870Z,2.30
2023-03-10T14:32:56.819Z,3.03
2023-03-10T14:35:26.347Z,3.43
2023-03-10T14:37:55.247Z,2.33
2023-03-10T14:40:27.933Z,2.70
2023-03-10T14:42:59.465Z,2.13
2023-03-10T14:45:30.526Z,1.57
2023-03-10T14:48:02.875Z,2.67
2023-03-10T14:50:32.019Z,1.60
2023-03-10T14:53:00.496Z,1.47
2023-03-10T14:55:30.030Z,2.63
2023-03-10T14:58:01.400Z,1.57
2023-03-10T15:00:30.311Z,2.67
2023-03-10T15:03:00.672Z,1.90
2023-03-10T15:05:46.967Z,1.90
2023-03-10T15:08:16.627Z,1.30
2023-03-10T15:10:48.569Z,1.03
2023-03-10T15:13:18.561Z,1.47
2023-03-10T15:15:48.710Z,2.00
2023-03-10T15:18:20.414Z,1.90
2023-03-10T15:20:48.924Z,1.20
2023-03-10T15:23:19.822Z,2.27
2023-03-10T15:25:49.157Z,1.90
2023-03-10T15:28:17.549Z,0.87
2023-03-10T15:30:45.879Z,1.63
2023-03-10T15:33:14.529Z,1.30
2023-03-10T15:35:44.820Z,1.70
2023-03-10T15:38:15.847Z,1.73
2023-03-10T15:40:44.988Z,1.80
2023-03-10T15:43:13.681Z,1.97
2023-03-10T15:45:43.201Z,2.10
2023-03-10T15:48:12.234Z,2.00
2023-03-10T15:50:47.105Z,2.20
2023-03-10T15:53:16.203Z,3.50
2023-03-10T15:55:44.937Z,3.37
2023-03-10T15:58:14.971Z,2.80
2023-03-10T16:00:44.115Z,3.90
2023-03-10T16:03:17.084Z,2.50
2023-03-10T16:05:51.159Z,2.93
2023-03-10T16:08:19.944Z,2.83
2023-03-10T16:10:55.537Z,2.40
2023-03-10T16:13:25.165Z,2.60
2023-03-10T16:15:54.150Z,2.40
2023-03-10T16:18:24.702Z,2.67
2023-03-10T16:20:58.784Z,3.27
2023-03-10T16:23:30.256Z,2.67
2023-03-10T16:26:07.972Z,2.80
2023-03-10T16:28:37.580Z,2.80
2023-03-10T16:31:07.312Z,2.87
2023-03-10T16:33:36.158Z,2.60
2023-03-10T16:36:08.658Z,2.00
2023-03-10T16:38:37.753Z,3.30
2023-03-10T16:41:07.823Z,3.40
2023-03-10T16:43:38.778Z,2.60
2023-03-10T16:46:11.601Z,3.50
2023-03-10T16:48:42.994Z,3.30
2023-03-10T16:51:30.115Z,3.90
2023-03-10T16:54:00.848Z,3.87
2023-03-10T16:56:31.028Z,4.00
2023-03-10T16:59:00.141Z,3.97
2023-03-10T17:01:32.027Z,4.20
2023-03-10T17:04:01.619Z,4.37
2023-03-10T17:06:35.006Z,4.97
2023-03-10T17:09:04.841Z,4.57
2023-03-10T17:11:36.061Z,5.20
2023-03-10T17:14:07.067Z,5.03
2023-03-10T17:16:37.996Z,5.87
2023-03-10T17:19:09.045Z,5.00
2023-03-10T17:21:46.035Z,5.27
2023-03-10T17:24:16.508Z,6.03
2023-03-10T17:26:46.606Z,7.93
2023-03-10T17:29:16.636Z,8.87
2023-03-10T17:31:51.122Z,6.87
2023-03-10T17:34:21.591Z,6.37
2023-03-10T17:36:53.291Z,6.37
2023-03-10T17:39:24.610Z,6.60
2023-03-10T17:41:56.031Z,6.63
2023-03-10T17:44:28.534Z,6.47
2023-03-10T17:47:00.038Z,6.20
2023-03-10T17:49:34.121Z,6.90
2023-03-10T17:52:06.614Z,6.20
2023-03-10T17:54:36.613Z,5.10
2023-03-10T17:57:08.574Z,5.53
2023-03-10T17:59:39.564Z,5.10
2023-03-10T18:02:11.315Z,5.20
2023-03-10T18:04:46.243Z,5.60
2023-03-10T18:07:19.842Z,5.90
2023-03-10T18:09:54.306Z,4.83
2023-03-10T18:12:37.699Z,5.73
2023-03-10T18:15:10.440Z,5.50
2023-03-10T18:17:45.800Z,5.70
2023-03-10T18:20:26.372Z,5.10
2023-03-10T18:22:57.361Z,5.00
2023-03-10T18:25:27.672Z,5.83
2023-03-10T18:27:59.034Z,4.77
2023-03-10T18:30:28.283Z,5.07
2023-03-10T18:32:58.830Z,6.30
2023-03-10T18:35:28.967Z,5.80
2023-03-10T18:38:02.128Z,5.03
2023-03-10T18:40:31.958Z,7.33
2023-03-10T18:43:01.561Z,7.43
2023-03-10T18:45:31.466Z,22.00
2023-03-10T18:48:00.805Z,7.63
2023-03-10T18:50:30.303Z,7.93
2023-03-10T18:53:01.931Z,8.57
2023-03-10T18:55:31.085Z,6.33
2023-03-10T18:58:01.005Z,6.17
2023-03-10T19:00:30.895Z,8.47
2023-03-10T19:03:00.828Z,7.73
2023-03-10T19:05:31.160Z,7.63
2023-03-10T19:08:03.399Z,6.30
2023-03-10T19:10:32.915Z,6.70
2023-03-10T19:13:03.160Z,10.30
2023-03-10T19:15:35.624Z,7.90
2023-03-10T19:18:07.011Z,8.67
2023-03-10T19:20:37.398Z,8.37
2023-03-10T19:23:10.799Z,7.67
2023-03-10T19:25:44.845Z,7.57
2023-03-10T19:28:21.087Z,6.07
2023-03-10T19:30:51.865Z,5.97
2023-03-10T19:33:23.875Z,7.10
2023-03-10T19:36:05.143Z,7.73
2023-03-10T19:38:36.836Z,6.20
2023-03-10T19:41:08.163Z,6.27
2023-03-10T19:43:38.904Z,5.57
2023-03-10T19:46:11.737Z,8.60
2023-03-10T19:48:48.030Z,8.97
2023-03-10T19:51:23.371Z,9.00
2023-03-10T19:53:56.855Z,9.10
2023-03-10T19:56:28.061Z,6.80
2023-03-10T19:58:58.838Z,6.10
2023-03-10T20:01:33.786Z,6.67
2023-03-10T20:04:05.292Z,6.10
2023-03-10T20:06:35.753Z,6.90
2023-03-10T20:09:11.466Z,8.73
2023-03-10T20:11:41.771Z,7.40
2023-03-10T20:14:12.390Z,9.00
2023-03-10T20:16:42.772Z,10.30
2023-03-10T20:19:13.509Z,10.47
2023-03-10T20:21:43.639Z,8.77
2023-03-10T20:24:14.478Z,8.30
2023-03-10T20:26:43.945Z,12.57
2023-03-10T20:29:15.838Z,15.97
2023-03-10T20:31:46.563Z,15.97
2023-03-10T20:34:22.179Z,15.63
2023-03-10T20:36:54.475Z,14.97
2023-03-10T20:39:26.361Z,14.73
2023-03-10T20:41:55.693Z,14.53
2023-03-10T20:44:24.954Z,14.83
2023-03-10T20:46:54.263Z,15.27
2023-03-10T20:49:23.585Z,14.50
2023-03-10T20:51:52.958Z,17.03
2023-03-10T20:54:22.906Z,13.43
2023-03-10T20:56:55.475Z,14.13
2023-03-10T20:59:24.963Z,14.10
2023-03-10T21:02:08.606Z,14.63
2023-03-10T21:04:38.401Z,13.07
2023-03-10T21:07:08.786Z,14.73
2023-03-10T21:09:38.710Z,13.20
2023-03-10T21:12:09.739Z,14.40
2023-03-10T21:14:38.621Z,14.07
2023-03-10T21:17:09.647Z,17.07
2023-03-10T21:19:39.021Z,15.47
2023-03-10T21:22:08.075Z,14.50
2023-03-10T21:24:38.410Z,14.17
2023-03-10T21:27:12.230Z,15.00
2023-03-10T21:29:42.235Z,15.93
2023-03-10T21:32:11.519Z,13.80
2023-03-10T21:34:42.344Z,13.90
2023-03-10T21:37:12.232Z,12.73
2023-03-10T21:39:41.274Z,12.00
2023-03-10T21:42:13.073Z,10.73
2023-03-10T21:44:41.951Z,11.53
2023-03-10T21:47:10.748Z,12.70
2023-03-10T21:49:39.258Z,11.67
2023-03-10T21:52:09.417Z,14.90
2023-03-10T21:54:37.841Z,12.37
2023-03-10T21:57:07.340Z,11.47
2023-03-10T21:59:37.156Z,13.43
2023-03-10T22:02:06.174Z,11.60
2023-03-10T22:04:34.876Z,11.80
2023-03-10T22:07:04.462Z,11.27
2023-03-10T22:09:32.857Z,13.00
2023-03-10T22:12:01.200Z,13.90
2023-03-10T22:14:29.873Z,15.03
2023-03-10T22:17:00.174Z,14.20
2023-03-10T22:19:30.100Z,12.80
2023-03-10T22:21:58.923Z,11.37
2023-03-10T22:24:27.779Z,12.30
2023-03-10T22:26:59.131Z,10.43
2023-03-10T22:29:27.570Z,12.13
2023-03-10T22:31:56.412Z,11.53
2023-03-10T22:34:26.739Z,11.00
2023-03-10T22:36:55.122Z,10.90
2023-03-10T22:39:24.191Z,10.30
2023-03-10T22:41:54.177Z,11.20
2023-03-10T22:44:23.008Z,9.77
2023-03-10T22:46:53.066Z,10.67
2023-03-10T22:49:22.114Z,9.73
2023-03-10T22:51:51.826Z,9.03
2023-03-10T22:54:20.466Z,9.23
2023-03-10T22:56:48.907Z,10.37
2023-03-10T22:59:17.281Z,10.10
2023-03-10T23:01:46.496Z,10.70
2023-03-10T23:04:14.938Z,10.30
2023-03-10T23:06:43.248Z,9.80
2023-03-10T23:09:13.024Z,9.90
2023-03-10T23:11:41.609Z,10.37
2023-03-10T23:14:09.895Z,11.03
2023-03-10T23:16:38.890Z,11.53
2023-03-10T23:19:08.773Z,10.67
2023-03-10T23:21:37.779Z,11.03
2023-03-10T23:24:06.997Z,13.60
2023-03-10T23:26:37.677Z,14.20
2023-03-10T23:29:06.322Z,13.93
2023-03-10T23:31:34.722Z,14.57
2023-03-10T23:34:03.121Z,12.50
2023-03-10T23:36:32.410Z,12.40
2023-03-10T23:39:01.000Z,12.80
2023-03-10T23:41:29.324Z,13.60
2023-03-10T23:43:59.056Z,14.20
2023-03-10T23:46:27.434Z,14.07
2023-03-10T23:48:55.995Z,14.43
2023-03-10T23:51:26.300Z,14.53
2023-03-10T23:53:54.638Z,14.83
2023-03-10T23:56:23.065Z,14.33
2023-03-10T23:58:51.787Z,15.67
